Terminal Aerodrome Forecast
Issued by NWS Wilmington, OH

Current Version | Previous Version | Text Only | Print | Product List | Glossary Off
Versions: 1 2 3 4 5 6 7 8 9 10 11 12 13 14 15 16 17 18 19 20 21 22

864
FTUS41 KILN 201308 AAA
TAFCMH
TAF AMD
KCMH 201308Z 2013/2112 35004KT P6SM BKN012
      TEMPO 2013/2014 SCT012
     FM201600 35004KT P6SM SCT025
     FM202200 35006KT P6SM VCTS BKN040CB
     FM210100 05005KT P6SM SCT050 BKN120=

USA.gov is the U.S. government's official web portal to all federal, state and local government web resources and services.